Barton Mills, United Kingdom
Current Conditions -  °F | °C
As of 12:58 PM on Wednesday 22 Oct 2014 (Local Time) from EGUN Reporting Station
Clear Clear  
Wind Chill: 57°   Ceiling: Unl
Heat Index: 57°   Visibility: 6mi
Dew Point: 52°   Wind: 20mph
Humidity: 85%   Direction: 290°WNW
Pressure: 30.22"   Gusts: NA
Location:  52.33°N, 0.53°E
Report Text: EGUN 221158Z AUTO 29017KT 9999 CLR 14/11 A3022 RMK AO2 SLP237 70003 T01370113 10137 20067 50001 $
Loading
Personal Weather Stations






























Interactive Weather Map
Tropical Storm Tracking
New forecast layout! Learn more

10-Day Weather Forecast

Advertisements
Track Severe Weather on mobile